createdAt,value
2019-01-11T00:00:23.020Z,101834.25
2019-01-11T00:02:54.295Z,101832.13
2019-01-11T00:05:25.532Z,101835.92
2019-01-11T00:07:56.818Z,101827.16
2019-01-11T00:10:28.043Z,101825.03
2019-01-11T00:12:59.407Z,101828.91
2019-01-11T00:15:31.349Z,101823.27
2019-01-11T00:18:02.633Z,101828.88
2019-01-11T00:20:33.926Z,101824.69
2019-01-11T00:23:05.938Z,101823.79
2019-01-11T00:25:37.127Z,101827.34
2019-01-11T00:28:08.459Z,101820.41
2019-01-11T00:30:39.712Z,101821.19
2019-01-11T00:33:10.820Z,101816.44
2019-01-11T00:35:42.101Z,101815.58
2019-01-11T00:38:13.332Z,101814.35
2019-01-11T00:40:44.614Z,101814.69
2019-01-11T00:43:15.823Z,101810.41
2019-01-11T00:45:47.102Z,101808.67
2019-01-11T00:48:18.370Z,101802.14
2019-01-11T00:50:49.633Z,101804.33
2019-01-11T00:53:22.424Z,101803.45
2019-01-11T00:55:55.587Z,101799.13
2019-01-11T00:58:29.220Z,101797.91
2019-01-11T01:01:02.628Z,101796.99
2019-01-11T01:03:35.882Z,101793.06
2019-01-11T01:06:09.287Z,101791.33
2019-01-11T01:08:42.662Z,101781.80
2019-01-11T01:11:14.395Z,101779.16
2019-01-11T01:13:45.740Z,101782.30
2019-01-11T01:16:17.052Z,101776.25
2019-01-11T01:18:48.296Z,101782.30
2019-01-11T01:21:19.606Z,101771.89
2019-01-11T01:23:50.928Z,101768.49
2019-01-11T01:26:22.300Z,101768.99
2019-01-11T01:28:53.609Z,101774.66
2019-01-11T01:31:24.859Z,101771.94
2019-01-11T01:33:56.142Z,101769.35
2019-01-11T01:36:27.454Z,101766.71
2019-01-11T01:38:58.872Z,101766.80
2019-01-11T01:41:30.106Z,101770.30
2019-01-11T01:44:01.359Z,101763.68
2019-01-11T01:46:32.735Z,101763.68
2019-01-11T01:49:04.022Z,101761.14
2019-01-11T01:51:35.267Z,101755.09
2019-01-11T01:54:07.175Z,101752.08
2019-01-11T01:56:38.471Z,101750.78
2019-01-11T01:59:09.784Z,101750.34
2019-01-11T02:01:41.079Z,101743.50
2019-01-11T02:04:12.393Z,101741.72
2019-01-11T02:06:43.685Z,101741.73
2019-01-11T02:09:14.915Z,101735.23
2019-01-11T02:11:46.972Z,101738.33
2019-01-11T02:14:18.225Z,101734.39
2019-01-11T02:16:49.506Z,101730.11
2019-01-11T02:19:20.806Z,101727.48
2019-01-11T02:21:52.806Z,101722.76
2019-01-11T02:24:24.035Z,101724.90
2019-01-11T02:26:55.298Z,101714.58
2019-01-11T02:29:26.472Z,101716.25
2019-01-11T02:31:57.760Z,101714.55
2019-01-11T02:34:29.015Z,101711.89
2019-01-11T02:37:00.259Z,101707.98
2019-01-11T02:39:31.525Z,101706.68
2019-01-11T02:42:02.795Z,101703.61
2019-01-11T02:44:34.063Z,101694.61
2019-01-11T02:47:05.462Z,101689.00
2019-01-11T02:49:40.220Z,101692.48
2019-01-11T02:52:09.551Z,101690.28
2019-01-11T02:54:40.879Z,101689.83
2019-01-11T02:57:12.131Z,101692.00
2019-01-11T02:59:43.397Z,101687.19
2019-01-11T03:02:14.641Z,101684.63
2019-01-11T03:04:45.913Z,101686.33
2019-01-11T03:07:17.147Z,101683.35
2019-01-11T03:09:48.419Z,101679.84
2019-01-11T03:12:19.651Z,101667.72
2019-01-11T03:14:50.839Z,101670.74
2019-01-11T03:17:22.018Z,101669.42
2019-01-11T03:19:53.303Z,101673.41
2019-01-11T03:22:24.649Z,101673.39
2019-01-11T03:24:55.920Z,101665.98
2019-01-11T03:27:27.229Z,101665.12
2019-01-11T03:29:58.469Z,101665.55
2019-01-11T03:32:29.744Z,101661.67
2019-01-11T03:35:25.828Z,101656.92
2019-01-11T03:37:57.123Z,101652.98
2019-01-11T03:40:28.508Z,101652.98
2019-01-11T03:42:59.893Z,101648.64
2019-01-11T03:45:31.172Z,101646.05
2019-01-11T03:48:02.424Z,101645.59
2019-01-11T03:50:33.680Z,101636.97
2019-01-11T03:53:05.094Z,101636.99
2019-01-11T03:55:36.346Z,101632.61
2019-01-11T03:58:07.670Z,101629.55
2019-01-11T04:00:38.953Z,101631.28
2019-01-11T04:03:10.178Z,101633.50
2019-01-11T04:05:41.392Z,101632.63
2019-01-11T04:08:12.585Z,101625.23
2019-01-11T04:10:43.815Z,101622.59
2019-01-11T04:13:15.761Z,101617.41
2019-01-11T04:15:47.032Z,101616.50
2019-01-11T04:18:35.556Z,101615.70
2019-01-11T04:21:06.901Z,101617.45
2019-01-11T04:23:38.178Z,101622.67
2019-01-11T04:26:09.425Z,101617.47
2019-01-11T04:28:40.712Z,101618.35
2019-01-11T04:31:11.945Z,101616.17
2019-01-11T04:33:43.184Z,101620.94
2019-01-11T04:36:14.495Z,101625.31
2019-01-11T04:38:45.792Z,101619.66
2019-01-11T04:41:17.350Z,101616.17
2019-01-11T04:43:48.607Z,101619.22
2019-01-11T04:46:19.897Z,101612.70
2019-01-11T04:48:51.178Z,101612.27
2019-01-11T04:51:22.459Z,101609.64
2019-01-11T04:53:53.731Z,101616.21
2019-01-11T04:56:25.018Z,101611.82
2019-01-11T04:58:56.246Z,101603.15
2019-01-11T05:01:27.527Z,101608.36
2019-01-11T05:03:58.832Z,101603.17
2019-01-11T05:06:30.072Z,101606.64
2019-01-11T05:09:01.361Z,101597.13
2019-01-11T05:11:32.824Z,101593.23
2019-01-11T05:14:04.120Z,101596.69
2019-01-11T05:16:39.417Z,101598.00
2019-01-11T05:19:08.293Z,101602.73
2019-01-11T05:21:39.446Z,101597.13
2019-01-11T05:24:10.726Z,101594.98
2019-01-11T05:26:41.999Z,101592.80
2019-01-11T05:29:13.241Z,101601.48
2019-01-11T05:31:44.531Z,101592.38
2019-01-11T05:34:15.752Z,101591.05
2019-01-11T05:36:47.086Z,101591.94
2019-01-11T05:39:18.352Z,101582.36
2019-01-11T05:41:49.630Z,101589.77
2019-01-11T05:44:20.788Z,101580.66
2019-01-11T05:46:52.224Z,101582.82
2019-01-11T05:49:23.461Z,101578.50
2019-01-11T05:51:54.656Z,101579.39
2019-01-11T05:54:25.902Z,101583.30
2019-01-11T05:56:57.231Z,101587.62
2019-01-11T05:59:28.504Z,101590.24
2019-01-11T06:01:59.823Z,101588.08
2019-01-11T06:04:49.804Z,101588.07
2019-01-11T06:07:42.733Z,101591.56
2019-01-11T06:10:16.681Z,101592.86
2019-01-11T06:12:47.910Z,101595.05
2019-01-11T06:15:19.189Z,101598.06
2019-01-11T06:17:50.418Z,101590.70
2019-01-11T06:20:21.987Z,101592.86
2019-01-11T06:22:53.219Z,101591.14
2019-01-11T06:25:24.431Z,101587.22
2019-01-11T06:27:55.663Z,101588.52
2019-01-11T06:30:26.871Z,101586.81
2019-01-11T06:32:58.091Z,101582.90
2019-01-11T06:35:29.405Z,101590.28
2019-01-11T06:38:00.712Z,101587.22
2019-01-11T06:40:31.972Z,101582.01
2019-01-11T06:43:03.669Z,101584.64
2019-01-11T06:45:35.072Z,101588.97
2019-01-11T06:48:12.296Z,101585.05
2019-01-11T06:50:43.574Z,101592.44
2019-01-11T06:53:14.818Z,101585.94
2019-01-11T06:55:45.960Z,101593.33
2019-01-11T06:58:17.255Z,101592.89
2019-01-11T07:00:48.519Z,101597.25
2019-01-11T07:03:19.849Z,101593.76
2019-01-11T07:05:51.100Z,101601.16
2019-01-11T07:08:22.638Z,101596.80
2019-01-11T07:10:53.942Z,101595.95
2019-01-11T07:13:25.197Z,101609.83
2019-01-11T07:15:56.504Z,101610.30
2019-01-11T07:18:27.756Z,101605.07
2019-01-11T07:20:59.029Z,101610.28
2019-01-11T07:23:30.316Z,101607.23
2019-01-11T07:26:01.616Z,101605.95
2019-01-11T07:28:32.762Z,101605.08
2019-01-11T07:31:07.380Z,101606.37
2019-01-11T07:33:38.700Z,101596.83
2019-01-11T07:36:28.808Z,101604.21
2019-01-11T07:39:00.243Z,101596.39
2019-01-11T07:41:31.522Z,101595.08
2019-01-11T07:44:02.810Z,101593.34
2019-01-11T07:46:39.834Z,101581.59
2019-01-11T07:49:11.155Z,101582.03
2019-01-11T07:51:42.523Z,101587.70
2019-01-11T07:54:13.819Z,101578.58
2019-01-11T07:56:44.960Z,101594.65
2019-01-11T07:59:16.439Z,101583.36
2019-01-11T08:01:47.666Z,101590.75
2019-01-11T08:04:18.850Z,101586.37
2019-01-11T08:06:50.161Z,101580.28
2019-01-11T08:09:21.294Z,101590.72
2019-01-11T08:11:52.574Z,101591.17
2019-01-11T08:14:23.803Z,101585.95
2019-01-11T08:16:55.073Z,101582.04
2019-01-11T08:19:26.212Z,101585.08
2019-01-11T08:21:57.500Z,101585.50
2019-01-11T08:24:28.692Z,101585.08
2019-01-11T08:26:59.985Z,101592.02
2019-01-11T08:29:31.217Z,101587.25
2019-01-11T08:32:02.508Z,101590.73
2019-01-11T08:34:33.765Z,101587.23
2019-01-11T08:37:05.418Z,101585.05
2019-01-11T08:39:36.684Z,101587.66
2019-01-11T08:42:07.888Z,101599.84
2019-01-11T08:44:39.204Z,101600.69
2019-01-11T08:47:10.451Z,101597.65
2019-01-11T08:49:41.732Z,101601.55
2019-01-11T08:52:12.982Z,101609.37
2019-01-11T08:54:44.308Z,101606.33
2019-01-11T08:57:15.499Z,101606.31
2019-01-11T08:59:46.794Z,101608.89
2019-01-11T09:02:18.048Z,101601.98
2019-01-11T09:04:49.319Z,101598.90
2019-01-11T09:07:20.602Z,101601.48
2019-01-11T09:09:51.881Z,101595.42
2019-01-11T09:12:23.070Z,101598.88
2019-01-11T09:14:54.802Z,101593.66
2019-01-11T09:17:25.953Z,101601.05
2019-01-11T09:19:57.239Z,101591.91
2019-01-11T09:22:28.423Z,101600.56
2019-01-11T09:24:59.697Z,101601.41
2019-01-11T09:27:30.977Z,101609.73
2019-01-11T09:30:02.061Z,101603.63
2019-01-11T09:32:33.245Z,101600.56
2019-01-11T09:35:05.141Z,101598.78
2019-01-11T09:37:36.468Z,101594.41
2019-01-11T09:40:08.255Z,101599.59
2019-01-11T09:42:39.518Z,101591.76
2019-01-11T09:45:11.149Z,101592.19
2019-01-11T09:47:42.448Z,101591.73
2019-01-11T09:50:13.650Z,101588.20
2019-01-11T09:52:44.880Z,101587.28
2019-01-11T09:55:16.684Z,101577.28
2019-01-11T09:57:47.984Z,101583.73
2019-01-11T10:00:26.830Z,101586.37
2019-01-11T10:03:04.205Z,101587.22
2019-01-11T10:05:35.442Z,101588.47
2019-01-11T10:08:06.769Z,101593.30
2019-01-11T10:10:38.015Z,101581.05
2019-01-11T10:13:09.208Z,101578.43
2019-01-11T10:15:40.745Z,101587.11
2019-01-11T10:18:11.985Z,101590.46
2019-01-11T10:20:43.250Z,101586.13
2019-01-11T10:23:14.740Z,101586.52
2019-01-11T10:25:45.994Z,101590.47
2019-01-11T10:28:17.226Z,101587.38
2019-01-11T10:30:48.475Z,101581.14
2019-01-11T10:33:19.781Z,101586.34
2019-01-11T10:35:51.023Z,101592.36
2019-01-11T10:38:22.171Z,101586.61
2019-01-11T10:40:53.391Z,101587.05
2019-01-11T10:43:24.568Z,101582.31
2019-01-11T10:45:55.813Z,101581.94
2019-01-11T10:48:27.112Z,101576.29
2019-01-11T10:50:58.399Z,101581.94
2019-01-11T10:53:29.647Z,101577.59
2019-01-11T10:56:00.899Z,101574.12
2019-01-11T10:58:32.190Z,101587.55
2019-01-11T11:01:03.441Z,101580.14
2019-01-11T11:03:34.710Z,101584.39
2019-01-11T11:06:06.073Z,101573.89
2019-01-11T11:08:37.410Z,101578.09
2019-01-11T11:11:08.675Z,101572.37
2019-01-11T11:13:39.999Z,101572.77
2019-01-11T11:16:11.232Z,101571.38
2019-01-11T11:18:42.543Z,101567.77
2019-01-11T11:21:13.769Z,101569.66
2019-01-11T11:23:45.092Z,101571.38
2019-01-11T11:26:16.432Z,101559.13
2019-01-11T11:28:47.745Z,101558.33
2019-01-11T11:31:19.033Z,101552.14
2019-01-11T11:33:50.272Z,101556.88
2019-01-11T11:36:21.471Z,101550.73
2019-01-11T11:38:52.685Z,101548.98
2019-01-11T11:41:24.073Z,101543.27
2019-01-11T11:43:55.230Z,101542.37
2019-01-11T11:46:26.477Z,101539.34
2019-01-11T11:48:57.803Z,101537.38
2019-01-11T11:51:29.155Z,101539.98
2019-01-11T11:54:00.469Z,101531.74
2019-01-11T11:56:31.697Z,101534.19
2019-01-11T11:59:02.892Z,101531.58
2019-01-11T12:01:34.178Z,101527.14
2019-01-11T12:04:07.116Z,101524.90
2019-01-11T12:06:38.549Z,101520.12
2019-01-11T12:09:12.084Z,101514.09
2019-01-11T12:11:43.325Z,101513.12
2019-01-11T12:14:14.600Z,101505.64
2019-01-11T12:16:45.854Z,101504.33
2019-01-11T12:19:17.153Z,101499.56
2019-01-11T12:21:48.504Z,101491.34
2019-01-11T12:24:19.784Z,101493.06
2019-01-11T12:26:51.057Z,101489.84
2019-01-11T12:29:22.409Z,101483.33
2019-01-11T12:31:53.728Z,101479.81
2019-01-11T12:34:25.006Z,101483.55
2019-01-11T12:36:56.233Z,101480.34
2019-01-11T12:39:27.374Z,101476.02
2019-01-11T12:41:58.667Z,101474.37
2019-01-11T12:44:29.918Z,101477.31
2019-01-11T12:47:01.209Z,101477.20
2019-01-11T12:49:32.493Z,101480.27
2019-01-11T12:52:03.795Z,101471.63
2019-01-11T12:54:35.076Z,101471.22
2019-01-11T12:57:06.494Z,101464.61
2019-01-11T12:59:37.697Z,101460.02
2019-01-11T13:02:08.985Z,101459.93
2019-01-11T13:04:40.486Z,101457.66
2019-01-11T13:07:11.749Z,101452.06
2019-01-11T13:09:43.030Z,101452.84
2019-01-11T13:12:14.195Z,101451.94
2019-01-11T13:14:45.549Z,101448.75
2019-01-11T13:17:16.791Z,101441.14
2019-01-11T13:19:48.061Z,101446.77
2019-01-11T13:22:19.315Z,101440.69
2019-01-11T13:24:50.580Z,101448.11
2019-01-11T13:27:21.820Z,101444.17
2019-01-11T13:29:52.989Z,101443.69
2019-01-11T13:32:24.298Z,101437.14
2019-01-11T13:34:55.568Z,101439.31
2019-01-11T13:37:26.854Z,101439.13
2019-01-11T13:39:58.092Z,101437.20
2019-01-11T13:42:29.399Z,101430.66
2019-01-11T13:45:00.738Z,101433.73
2019-01-11T13:47:33.205Z,101435.89
2019-01-11T13:50:06.209Z,101441.13
2019-01-11T13:52:37.601Z,101443.44
2019-01-11T13:55:08.829Z,101437.13
2019-01-11T13:57:40.113Z,101433.11
2019-01-11T14:00:14.687Z,101432.64
2019-01-11T14:02:46.021Z,101434.83
2019-01-11T14:05:17.337Z,101438.20
2019-01-11T14:07:48.579Z,101441.22
2019-01-11T14:10:19.846Z,101436.81
2019-01-11T14:12:51.089Z,101433.80
2019-01-11T14:15:22.330Z,101425.92
2019-01-11T14:17:53.642Z,101430.16
2019-01-11T14:20:24.910Z,101421.98
2019-01-11T14:22:56.175Z,101422.84
2019-01-11T14:25:27.465Z,101426.02
2019-01-11T14:27:58.742Z,101423.06
2019-01-11T14:30:30.020Z,101427.40
2019-01-11T14:33:01.445Z,101422.59
2019-01-11T14:35:32.663Z,101426.17
2019-01-11T14:38:03.966Z,101430.73
2019-01-11T14:40:35.354Z,101431.11
2019-01-11T14:43:06.647Z,101429.39
2019-01-11T14:45:39.248Z,101436.36
2019-01-11T14:48:10.790Z,101435.33
2019-01-11T14:50:41.945Z,101436.19
2019-01-11T14:53:13.283Z,101440.45
2019-01-11T14:55:44.443Z,101445.67
2019-01-11T14:58:15.710Z,101450.48
2019-01-11T15:00:46.952Z,101444.52
2019-01-11T15:03:18.252Z,101448.41
2019-01-11T15:05:49.565Z,101449.33
2019-01-11T15:08:20.901Z,101448.96
2019-01-11T15:10:52.145Z,101453.35
2019-01-11T15:13:23.486Z,101450.33
2019-01-11T15:15:54.771Z,101442.91
2019-01-11T15:18:26.171Z,101441.54
2019-01-11T15:20:57.429Z,101447.00
2019-01-11T15:23:28.768Z,101445.16
2019-01-11T15:26:00.069Z,101442.08
2019-01-11T15:28:31.376Z,101434.57
2019-01-11T15:31:02.673Z,101438.19
2019-01-11T15:33:33.980Z,101437.27
2019-01-11T15:36:05.410Z,101435.98
2019-01-11T15:38:36.772Z,101432.12
2019-01-11T15:41:08.087Z,101425.54
2019-01-11T15:43:39.403Z,101427.27
2019-01-11T15:46:15.065Z,101430.94
2019-01-11T15:48:49.913Z,101429.63
2019-01-11T15:51:25.258Z,101434.03
2019-01-11T15:53:57.240Z,101429.25
2019-01-11T15:56:28.844Z,101437.98
2019-01-11T15:59:00.613Z,101436.75
2019-01-11T16:01:32.067Z,101433.11
2019-01-11T16:04:09.102Z,101435.27
2019-01-11T16:06:42.806Z,101434.34
2019-01-11T16:10:13.222Z,101433.56
2019-01-11T16:13:07.814Z,101433.98
2019-01-11T16:16:33.863Z,101428.73
2019-01-11T16:19:05.241Z,101437.53
2019-01-11T16:21:36.464Z,101431.95
2019-01-11T16:24:08.301Z,101431.48
2019-01-11T16:26:39.575Z,101430.58
2019-01-11T16:29:10.791Z,101427.48
2019-01-11T16:31:42.047Z,101438.44
2019-01-11T16:34:13.349Z,101439.69
2019-01-11T16:36:44.503Z,101437.91
2019-01-11T16:39:15.863Z,101437.14
2019-01-11T16:41:47.107Z,101437.58
2019-01-11T16:44:18.436Z,101450.33
2019-01-11T16:46:49.685Z,101452.95
2019-01-11T16:49:20.869Z,101448.09
2019-01-11T16:51:52.109Z,101456.05
2019-01-11T16:54:23.292Z,101455.52
2019-01-11T16:56:54.520Z,101459.91
2019-01-11T16:59:25.876Z,101459.52
2019-01-11T17:01:57.137Z,101458.59
2019-01-11T17:04:28.380Z,101457.81
2019-01-11T17:06:59.704Z,101464.38
2019-01-11T17:09:30.980Z,101466.52
2019-01-11T17:12:02.225Z,101464.36
2019-01-11T17:14:33.441Z,101465.70
2019-01-11T17:17:04.956Z,101461.36
2019-01-11T17:19:36.297Z,101459.59
2019-01-11T17:22:07.557Z,101465.84
2019-01-11T17:24:38.791Z,101467.61
2019-01-11T17:27:10.054Z,101473.75
2019-01-11T17:29:46.951Z,101474.55
2019-01-11T17:32:14.199Z,101477.23
2019-01-11T17:34:45.403Z,101478.50
2019-01-11T17:37:16.539Z,101480.23
2019-01-11T17:39:47.837Z,101480.13
2019-01-11T17:42:19.080Z,101484.56
2019-01-11T17:44:50.421Z,101478.95
2019-01-11T17:47:21.648Z,101489.36
2019-01-11T17:49:52.936Z,101487.14
2019-01-11T17:52:24.109Z,101489.77
2019-01-11T17:54:55.446Z,101495.98
2019-01-11T17:57:26.671Z,101487.69
2019-01-11T17:59:57.965Z,101498.69
2019-01-11T18:02:29.214Z,101496.47
2019-01-11T18:05:00.591Z,101497.38
2019-01-11T18:07:31.803Z,101494.30
2019-01-11T18:10:03.222Z,101491.75
2019-01-11T18:12:34.385Z,101503.48
2019-01-11T18:15:08.347Z,101502.23
2019-01-11T18:17:39.530Z,101505.78
2019-01-11T18:20:18.833Z,101500.98
2019-01-11T18:22:50.075Z,101504.91
2019-01-11T18:25:21.337Z,101498.75
2019-01-11T18:27:52.591Z,101497.58
2019-01-11T18:30:24.055Z,101501.11
2019-01-11T18:32:55.287Z,101503.62
2019-01-11T18:35:26.530Z,101501.45
2019-01-11T18:37:57.788Z,101500.59
2019-01-11T18:40:29.406Z,101502.74
2019-01-11T18:43:02.040Z,101506.23
2019-01-11T18:45:33.429Z,101507.55
2019-01-11T18:48:04.890Z,101507.49
2019-01-11T18:50:36.078Z,101509.80
2019-01-11T18:53:13.492Z,101513.27
2019-01-11T18:55:43.196Z,101505.39
2019-01-11T18:58:14.404Z,101509.31
2019-01-11T19:00:45.723Z,101510.97
2019-01-11T19:03:16.963Z,101511.08
2019-01-11T19:05:48.729Z,101519.28
2019-01-11T19:08:20.102Z,101511.55
2019-01-11T19:10:51.308Z,101516.27
2019-01-11T19:13:22.597Z,101516.74
2019-01-11T19:15:53.844Z,101510.56
2019-01-11T19:18:24.964Z,101517.20
2019-01-11T19:20:56.223Z,101525.13
2019-01-11T19:23:27.471Z,101525.50
2019-01-11T19:25:58.722Z,101514.13
2019-01-11T19:28:29.989Z,101526.38
2019-01-11T19:31:01.332Z,101516.73
2019-01-11T19:33:32.600Z,101522.88
2019-01-11T19:36:03.908Z,101524.98
2019-01-11T19:38:35.298Z,101530.70
2019-01-11T19:41:06.931Z,101529.79
2019-01-11T19:43:38.124Z,101528.07
2019-01-11T19:46:09.434Z,101532.41
2019-01-11T19:48:40.706Z,101535.56
2019-01-11T19:51:11.962Z,101527.23
2019-01-11T19:53:43.316Z,101528.07
2019-01-11T19:56:14.476Z,101527.66
2019-01-11T19:58:45.806Z,101526.30
2019-01-11T20:01:17.232Z,101538.55
2019-01-11T20:03:48.448Z,101535.03
2019-01-11T20:06:19.680Z,101529.84
2019-01-11T20:08:50.946Z,101537.20
2019-01-11T20:11:22.187Z,101542.44
2019-01-11T20:13:53.444Z,101542.38
2019-01-11T20:16:24.702Z,101548.07
2019-01-11T20:18:57.236Z,101541.59
2019-01-11T20:21:28.577Z,101538.56
2019-01-11T20:23:59.840Z,101541.20
2019-01-11T20:26:31.085Z,101539.14
2019-01-11T20:29:02.362Z,101537.83
2019-01-11T20:31:33.542Z,101537.77
2019-01-11T20:34:04.919Z,101543.21
2019-01-11T20:36:47.563Z,101545.33
2019-01-11T20:39:18.811Z,101547.02
2019-01-11T20:41:50.041Z,101543.02
2019-01-11T20:44:21.323Z,101549.96
2019-01-11T20:46:52.591Z,101547.43
2019-01-11T20:49:23.841Z,101543.54
2019-01-11T20:51:55.060Z,101547.48
2019-01-11T20:54:26.325Z,101540.88
2019-01-11T20:56:57.525Z,101540.86
2019-01-11T20:59:28.864Z,101543.94
2019-01-11T21:02:00.051Z,101547.54
2019-01-11T21:04:31.407Z,101549.63
2019-01-11T21:07:02.627Z,101550.50
2019-01-11T21:09:33.828Z,101548.78
2019-01-11T21:12:05.091Z,101547.36
2019-01-11T21:14:36.356Z,101550.50
2019-01-11T21:17:07.761Z,101557.11
2019-01-11T21:19:39.025Z,101552.72
2019-01-11T21:22:10.312Z,101552.21
2019-01-11T21:24:41.565Z,101557.97
2019-01-11T21:27:12.745Z,101564.06
2019-01-11T21:29:43.999Z,101564.08
2019-01-11T21:32:15.298Z,101566.30
2019-01-11T21:34:46.541Z,101569.03
2019-01-11T21:37:17.848Z,101567.66
2019-01-11T21:39:49.067Z,101559.69
2019-01-11T21:42:20.346Z,101557.11
2019-01-11T21:44:51.580Z,101556.66
2019-01-11T21:47:22.952Z,101561.86
2019-01-11T21:49:54.181Z,101563.22
2019-01-11T21:52:25.466Z,101559.80
2019-01-11T21:54:56.700Z,101559.81
2019-01-11T21:57:28.009Z,101557.12
2019-01-11T21:59:59.246Z,101548.40
2019-01-11T22:02:30.493Z,101552.00
2019-01-11T22:05:01.833Z,101554.55
2019-01-11T22:07:33.110Z,101567.20
2019-01-11T22:10:05.342Z,101569.48
2019-01-11T22:12:36.609Z,101561.12
2019-01-11T22:15:10.046Z,101567.61
2019-01-11T22:17:41.295Z,101564.59
2019-01-11T22:20:15.222Z,101566.81
2019-01-11T22:22:46.676Z,101568.08
2019-01-11T22:25:38.545Z,101560.59
2019-01-11T22:28:09.860Z,101557.63
2019-01-11T22:30:41.085Z,101564.14
2019-01-11T22:33:12.332Z,101565.95
2019-01-11T22:35:43.570Z,101560.66
2019-01-11T22:38:14.819Z,101560.25
2019-01-11T22:40:46.100Z,101544.59
2019-01-11T22:43:17.321Z,101560.27
2019-01-11T22:45:48.601Z,101556.27
2019-01-11T22:48:19.765Z,101555.59
2019-01-11T22:50:51.055Z,101559.08
2019-01-11T22:53:22.238Z,101551.55
2019-01-11T22:55:53.479Z,101551.99
2019-01-11T22:58:24.771Z,101553.77
2019-01-11T23:01:18.668Z,101552.44
2019-01-11T23:03:55.689Z,101550.23
2019-01-11T23:07:05.420Z,101548.97
2019-01-11T23:09:53.840Z,101545.39
2019-01-11T23:12:45.505Z,101549.38
2019-01-11T23:15:23.351Z,101550.64
2019-01-11T23:18:00.291Z,101547.22
2019-01-11T23:20:31.560Z,101548.92
2019-01-11T23:23:02.664Z,101551.08
2019-01-11T23:25:33.939Z,101549.89
2019-01-11T23:28:05.138Z,101540.44
2019-01-11T23:30:36.428Z,101545.96
2019-01-11T23:33:07.657Z,101545.89
2019-01-11T23:35:58.844Z,101549.44
2019-01-11T23:38:30.136Z,101551.20
2019-01-11T23:41:01.384Z,101553.88
2019-01-11T23:43:42.735Z,101549.89
2019-01-11T23:46:21.049Z,101550.75
2019-01-11T23:48:52.424Z,101551.66
2019-01-11T23:51:23.729Z,101556.84
2019-01-11T23:53:54.960Z,101552.45
2019-01-11T23:56:30.030Z,101558.09
2019-01-11T23:59:03.936Z,101553.44
